sensor_id;sensor_type;location;lat;lon;timestamp;temperature;humidity
72320;SHT30;60269;52.502;16.732;2022-12-07T00:02:46;2.17;99.99
72320;SHT30;60269;52.502;16.732;2022-12-07T00:06:19;2.18;99.99
72320;SHT30;60269;52.502;16.732;2022-12-07T00:09:51;2.24;99.99
72320;SHT30;60269;52.502;16.732;2022-12-07T00:13:23;2.24;99.99
72320;SHT30;60269;52.502;16.732;2022-12-07T00:16:54;2.28;99.99
72320;SHT30;60269;52.502;16.732;2022-12-07T00:20:27;2.27;99.99
72320;SHT30;60269;52.502;16.732;2022-12-07T00:23:59;2.31;99.99
72320;SHT30;60269;52.502;16.732;2022-12-07T00:27:32;2.35;99.99
72320;SHT30;60269;52.502;16.732;2022-12-07T00:31:07;2.35;99.99
72320;SHT30;60269;52.502;16.732;2022-12-07T00:34:39;2.31;99.99
72320;SHT30;60269;52.502;16.732;2022-12-07T00:38:11;2.35;99.99
72320;SHT30;60269;52.502;16.732;2022-12-07T00:41:43;2.35;99.99
72320;SHT30;60269;52.502;16.732;2022-12-07T00:45:15;2.37;99.99
72320;SHT30;60269;52.502;16.732;2022-12-07T00:48:48;2.38;99.99
72320;SHT30;60269;52.502;16.732;2022-12-07T00:52:20;2.40;99.99
72320;SHT30;60269;52.502;16.732;2022-12-07T00:55:52;2.40;99.99
72320;SHT30;60269;52.502;16.732;2022-12-07T00:59:24;2.42;99.89
72320;SHT30;60269;52.502;16.732;2022-12-07T01:02:56;2.45;99.75
72320;SHT30;60269;52.502;16.732;2022-12-07T01:06:29;2.46;99.59
72320;SHT30;60269;52.502;16.732;2022-12-07T01:10:02;2.51;99.43
72320;SHT30;60269;52.502;16.732;2022-12-07T01:13:35;2.48;99.47
72320;SHT30;60269;52.502;16.732;2022-12-07T01:17:07;2.52;99.53
72320;SHT30;60269;52.502;16.732;2022-12-07T01:20:39;2.51;99.61
72320;SHT30;60269;52.502;16.732;2022-12-07T01:24:12;2.49;99.63
72320;SHT30;60269;52.502;16.732;2022-12-07T01:27:43;2.51;99.70
72320;SHT30;60269;52.502;16.732;2022-12-07T01:31:18;2.51;99.71
72320;SHT30;60269;52.502;16.732;2022-12-07T01:34:50;2.54;99.73
72320;SHT30;60269;52.502;16.732;2022-12-07T01:38:22;2.51;99.63
72320;SHT30;60269;52.502;16.732;2022-12-07T01:41:54;2.52;99.53
72320;SHT30;60269;52.502;16.732;2022-12-07T01:45:40;2.58;99.20
72320;SHT30;60269;52.502;16.732;2022-12-07T01:49:16;2.55;99.20
72320;SHT30;60269;52.502;16.732;2022-12-07T01:52:50;2.59;99.10
72320;SHT30;60269;52.502;16.732;2022-12-07T01:56:26;2.61;99.06
72320;SHT30;60269;52.502;16.732;2022-12-07T02:00:00;2.56;98.82
72320;SHT30;60269;52.502;16.732;2022-12-07T02:03:39;2.55;98.79
72320;SHT30;60269;52.502;16.732;2022-12-07T02:07:11;2.54;98.41
72320;SHT30;60269;52.502;16.732;2022-12-07T02:10:43;2.52;98.21
72320;SHT30;60269;52.502;16.732;2022-12-07T02:14:15;2.46;97.98
72320;SHT30;60269;52.502;16.732;2022-12-07T02:17:58;2.48;97.72
72320;SHT30;60269;52.502;16.732;2022-12-07T02:21:47;2.41;98.05
72320;SHT30;60269;52.502;16.732;2022-12-07T02:25:47;2.37;98.39
72320;SHT30;60269;52.502;16.732;2022-12-07T02:29:36;2.27;98.74
72320;SHT30;60269;52.502;16.732;2022-12-07T02:33:15;2.28;98.79
72320;SHT30;60269;52.502;16.732;2022-12-07T02:36:53;2.24;98.83
72320;SHT30;60269;52.502;16.732;2022-12-07T02:40:41;2.24;98.69
72320;SHT30;60269;52.502;16.732;2022-12-07T02:44:18;2.23;98.77
72320;SHT30;60269;52.502;16.732;2022-12-07T02:47:53;2.21;98.58
72320;SHT30;60269;52.502;16.732;2022-12-07T02:51:30;2.20;98.49
72320;SHT30;60269;52.502;16.732;2022-12-07T02:55:03;2.23;98.51
72320;SHT30;60269;52.502;16.732;2022-12-07T02:59:12;2.27;97.84
72320;SHT30;60269;52.502;16.732;2022-12-07T03:03:05;2.25;97.35
72320;SHT30;60269;52.502;16.732;2022-12-07T03:06:43;2.21;97.27
72320;SHT30;60269;52.502;16.732;2022-12-07T03:14:19;2.09;97.52
72320;SHT30;60269;52.502;16.732;2022-12-07T03:17:55;2.04;97.26
72320;SHT30;60269;52.502;16.732;2022-12-07T03:21:36;1.93;97.28
72320;SHT30;60269;52.502;16.732;2022-12-07T03:25:11;1.92;97.61
72320;SHT30;60269;52.502;16.732;2022-12-07T03:28:50;1.99;97.33
72320;SHT30;60269;52.502;16.732;2022-12-07T03:32:45;2.03;96.71
72320;SHT30;60269;52.502;16.732;2022-12-07T03:40:11;2.02;96.78
72320;SHT30;60269;52.502;16.732;2022-12-07T03:43:45;2.02;96.95
72320;SHT30;60269;52.502;16.732;2022-12-07T03:51:05;2.03;96.87
72320;SHT30;60269;52.502;16.732;2022-12-07T03:54:44;2.06;96.95
72320;SHT30;60269;52.502;16.732;2022-12-07T03:58:19;2.04;96.75
72320;SHT30;60269;52.502;16.732;2022-12-07T04:01:54;2.00;97.03
72320;SHT30;60269;52.502;16.732;2022-12-07T04:05:27;2.02;97.28
72320;SHT30;60269;52.502;16.732;2022-12-07T04:08:59;1.99;97.27
72320;SHT30;60269;52.502;16.732;2022-12-07T04:12:31;1.97;97.38
72320;SHT30;60269;52.502;16.732;2022-12-07T04:16:02;2.02;97.47
72320;SHT30;60269;52.502;16.732;2022-12-07T04:19:35;1.99;97.68
72320;SHT30;60269;52.502;16.732;2022-12-07T04:23:07;1.97;97.76
72320;SHT30;60269;52.502;16.732;2022-12-07T04:26:39;2.02;97.63
72320;SHT30;60269;52.502;16.732;2022-12-07T04:30:11;2.06;97.64
72320;SHT30;60269;52.502;16.732;2022-12-07T04:33:44;2.04;97.78
72320;SHT30;60269;52.502;16.732;2022-12-07T04:37:16;2.06;97.77
72320;SHT30;60269;52.502;16.732;2022-12-07T04:40:49;2.06;97.96
72320;SHT30;60269;52.502;16.732;2022-12-07T04:44:21;2.10;98.05
72320;SHT30;60269;52.502;16.732;2022-12-07T04:47:53;2.13;97.95
72320;SHT30;60269;52.502;16.732;2022-12-07T04:51:27;2.03;97.79
72320;SHT30;60269;52.502;16.732;2022-12-07T04:55:00;1.93;98.21
72320;SHT30;60269;52.502;16.732;2022-12-07T04:58:32;1.86;98.56
72320;SHT30;60269;52.502;16.732;2022-12-07T05:02:05;1.86;98.59
72320;SHT30;60269;52.502;16.732;2022-12-07T05:05:40;1.90;98.55
72320;SHT30;60269;52.502;16.732;2022-12-07T05:09:14;1.90;98.48
72320;SHT30;60269;52.502;16.732;2022-12-07T05:12:46;1.89;98.52
72320;SHT30;60269;52.502;16.732;2022-12-07T05:16:18;1.89;98.46
72320;SHT30;60269;52.502;16.732;2022-12-07T05:19:50;1.89;98.41
72320;SHT30;60269;52.502;16.732;2022-12-07T05:23:22;1.92;98.37
72320;SHT30;60269;52.502;16.732;2022-12-07T05:26:55;1.92;98.19
72320;SHT30;60269;52.502;16.732;2022-12-07T05:30:27;1.96;97.85
72320;SHT30;60269;52.502;16.732;2022-12-07T05:33:59;1.96;97.95
72320;SHT30;60269;52.502;16.732;2022-12-07T05:37:31;2.00;97.68
72320;SHT30;60269;52.502;16.732;2022-12-07T05:41:04;2.06;97.52
72320;SHT30;60269;52.502;16.732;2022-12-07T05:44:38;2.04;97.49
72320;SHT30;60269;52.502;16.732;2022-12-07T05:48:09;2.03;97.59
72320;SHT30;60269;52.502;16.732;2022-12-07T05:51:41;2.00;97.59
72320;SHT30;60269;52.502;16.732;2022-12-07T05:55:13;1.94;97.94
72320;SHT30;60269;52.502;16.732;2022-12-07T05:58:46;1.87;97.95
72320;SHT30;60269;52.502;16.732;2022-12-07T06:02:36;1.89;98.21
72320;SHT30;60269;52.502;16.732;2022-12-07T06:06:08;1.86;97.97
72320;SHT30;60269;52.502;16.732;2022-12-07T06:09:40;1.82;98.20
72320;SHT30;60269;52.502;16.732;2022-12-07T06:13:12;1.79;98.19
72320;SHT30;60269;52.502;16.732;2022-12-07T06:16:44;1.79;98.43
72320;SHT30;60269;52.502;16.732;2022-12-07T06:20:16;1.83;98.45
72320;SHT30;60269;52.502;16.732;2022-12-07T06:23:48;1.79;98.39
72320;SHT30;60269;52.502;16.732;2022-12-07T06:27:20;1.77;98.72
72320;SHT30;60269;52.502;16.732;2022-12-07T06:30:59;1.77;98.83
72320;SHT30;60269;52.502;16.732;2022-12-07T06:34:31;1.75;98.80
72320;SHT30;60269;52.502;16.732;2022-12-07T06:38:03;1.76;98.83
72320;SHT30;60269;52.502;16.732;2022-12-07T06:41:39;1.75;98.73
72320;SHT30;60269;52.502;16.732;2022-12-07T06:45:11;1.73;98.75
72320;SHT30;60269;52.502;16.732;2022-12-07T06:48:43;1.76;98.62
72320;SHT30;60269;52.502;16.732;2022-12-07T06:52:15;1.75;98.66
72320;SHT30;60269;52.502;16.732;2022-12-07T06:55:47;1.72;98.46
72320;SHT30;60269;52.502;16.732;2022-12-07T06:59:19;1.66;98.68
72320;SHT30;60269;52.502;16.732;2022-12-07T07:02:51;1.65;98.91
72320;SHT30;60269;52.502;16.732;2022-12-07T07:06:23;1.70;98.99
72320;SHT30;60269;52.502;16.732;2022-12-07T07:09:55;1.67;98.85
72320;SHT30;60269;52.502;16.732;2022-12-07T07:13:27;1.69;98.89
72320;SHT30;60269;52.502;16.732;2022-12-07T07:16:59;1.70;98.84
72320;SHT30;60269;52.502;16.732;2022-12-07T07:20:31;1.69;98.69
72320;SHT30;60269;52.502;16.732;2022-12-07T07:24:03;1.67;98.64
72320;SHT30;60269;52.502;16.732;2022-12-07T07:27:35;1.66;98.76
72320;SHT30;60269;52.502;16.732;2022-12-07T07:31:07;1.60;98.77
72320;SHT30;60269;52.502;16.732;2022-12-07T07:34:39;1.48;98.54
72320;SHT30;60269;52.502;16.732;2022-12-07T07:38:11;1.35;98.75
72320;SHT30;60269;52.502;16.732;2022-12-07T07:41:43;1.36;98.56
72320;SHT30;60269;52.502;16.732;2022-12-07T07:45:15;1.34;98.26
72320;SHT30;60269;52.502;16.732;2022-12-07T07:48:47;1.35;98.35
72320;SHT30;60269;52.502;16.732;2022-12-07T07:52:20;1.45;98.26
72320;SHT30;60269;52.502;16.732;2022-12-07T07:55:53;1.58;97.72
72320;SHT30;60269;52.502;16.732;2022-12-07T07:59:25;1.62;97.34
72320;SHT30;60269;52.502;16.732;2022-12-07T08:02:57;1.65;96.96
72320;SHT30;60269;52.502;16.732;2022-12-07T08:06:29;1.60;96.27
72320;SHT30;60269;52.502;16.732;2022-12-07T08:10:03;1.58;95.80
72320;SHT30;60269;52.502;16.732;2022-12-07T08:13:36;1.55;95.87
72320;SHT30;60269;52.502;16.732;2022-12-07T08:17:08;1.49;96.00
72320;SHT30;60269;52.502;16.732;2022-12-07T08:20:41;1.46;96.68
72320;SHT30;60269;52.502;16.732;2022-12-07T08:24:13;1.32;96.87
72320;SHT30;60269;52.502;16.732;2022-12-07T08:27:45;1.20;97.45
72320;SHT30;60269;52.502;16.732;2022-12-07T08:31:18;1.08;97.92
72320;SHT30;60269;52.502;16.732;2022-12-07T08:34:52;0.94;98.52
72320;SHT30;60269;52.502;16.732;2022-12-07T08:38:24;0.93;98.90
72320;SHT30;60269;52.502;16.732;2022-12-07T08:42:02;0.93;99.24
72320;SHT30;60269;52.502;16.732;2022-12-07T08:45:34;0.98;99.43
72320;SHT30;60269;52.502;16.732;2022-12-07T08:49:20;1.07;99.06
72320;SHT30;60269;52.502;16.732;2022-12-07T08:52:55;1.08;98.61
72320;SHT30;60269;52.502;16.732;2022-12-07T08:56:28;1.11;98.51
72320;SHT30;60269;52.502;16.732;2022-12-07T09:00:00;1.09;98.32
72320;SHT30;60269;52.502;16.732;2022-12-07T09:03:33;1.09;98.54
72320;SHT30;60269;52.502;16.732;2022-12-07T09:07:05;1.11;98.78
72320;SHT30;60269;52.502;16.732;2022-12-07T09:10:38;0.98;99.11
72320;SHT30;60269;52.502;16.732;2022-12-07T09:14:10;0.93;99.25
72320;SHT30;60269;52.502;16.732;2022-12-07T09:17:42;0.88;99.23
72320;SHT30;60269;52.502;16.732;2022-12-07T09:21:13;0.91;99.36
72320;SHT30;60269;52.502;16.732;2022-12-07T09:24:46;0.94;99.25
72320;SHT30;60269;52.502;16.732;2022-12-07T09:28:17;0.98;99.34
72320;SHT30;60269;52.502;16.732;2022-12-07T09:31:51;1.03;99.05
72320;SHT30;60269;52.502;16.732;2022-12-07T09:35:24;1.05;98.85
72320;SHT30;60269;52.502;16.732;2022-12-07T09:38:56;1.08;99.10
72320;SHT30;60269;52.502;16.732;2022-12-07T09:42:39;1.09;98.95
72320;SHT30;60269;52.502;16.732;2022-12-07T09:46:15;1.11;99.19
72320;SHT30;60269;52.502;16.732;2022-12-07T09:49:48;1.11;99.38
72320;SHT30;60269;52.502;16.732;2022-12-07T09:53:25;1.08;99.33
72320;SHT30;60269;52.502;16.732;2022-12-07T09:56:58;1.07;99.29
72320;SHT30;60269;52.502;16.732;2022-12-07T10:00:30;1.07;99.55
72320;SHT30;60269;52.502;16.732;2022-12-07T10:04:22;0.94;99.43
72320;SHT30;60269;52.502;16.732;2022-12-07T10:07:56;0.93;99.80
72320;SHT30;60269;52.502;16.732;2022-12-07T10:11:28;0.96;99.77
72320;SHT30;60269;52.502;16.732;2022-12-07T10:15:04;1.00;99.63
72320;SHT30;60269;52.502;16.732;2022-12-07T10:18:48;0.98;99.73
72320;SHT30;60269;52.502;16.732;2022-12-07T10:22:20;0.97;99.70
72320;SHT30;60269;52.502;16.732;2022-12-07T10:25:56;1.00;99.79
72320;SHT30;60269;52.502;16.732;2022-12-07T10:29:34;1.04;99.73
72320;SHT30;60269;52.502;16.732;2022-12-07T10:33:30;1.08;99.63
72320;SHT30;60269;52.502;16.732;2022-12-07T10:40:40;0.97;99.39
72320;SHT30;60269;52.502;16.732;2022-12-07T10:44:22;1.03;99.67
72320;SHT30;60269;52.502;16.732;2022-12-07T10:48:10;1.14;99.64
72320;SHT30;60269;52.502;16.732;2022-12-07T10:52:13;1.17;99.72
72320;SHT30;60269;52.502;16.732;2022-12-07T11:00:37;1.13;99.54
72320;SHT30;60269;52.502;16.732;2022-12-07T11:18:50;0.42;99.99
72320;SHT30;60269;52.502;16.732;2022-12-07T11:22:36;0.53;99.99
72320;SHT30;60269;52.502;16.732;2022-12-07T11:30:13;0.75;99.99
72320;SHT30;60269;52.502;16.732;2022-12-07T11:33:55;0.83;99.99
72320;SHT30;60269;52.502;16.732;2022-12-07T11:37:33;0.93;99.98
72320;SHT30;60269;52.502;16.732;2022-12-07T11:41:10;0.97;99.78
72320;SHT30;60269;52.502;16.732;2022-12-07T11:45:15;1.07;99.75
72320;SHT30;60269;52.502;16.732;2022-12-07T11:48:55;1.17;99.61
72320;SHT30;60269;52.502;16.732;2022-12-07T11:52:42;1.25;99.58
72320;SHT30;60269;52.502;16.732;2022-12-07T11:56:17;1.35;99.52
72320;SHT30;60269;52.502;16.732;2022-12-07T11:59:53;1.41;99.56
72320;SHT30;60269;52.502;16.732;2022-12-07T12:03:32;1.45;99.69
72320;SHT30;60269;52.502;16.732;2022-12-07T12:07:06;1.48;99.44
72320;SHT30;60269;52.502;16.732;2022-12-07T12:18:45;1.60;99.28
72320;SHT30;60269;52.502;16.732;2022-12-07T12:22:34;1.70;99.18
72320;SHT30;60269;52.502;16.732;2022-12-07T12:26:17;1.72;99.24
72320;SHT30;60269;52.502;16.732;2022-12-07T12:29:54;1.82;99.01
72320;SHT30;60269;52.502;16.732;2022-12-07T12:33:29;1.94;98.62
72320;SHT30;60269;52.502;16.732;2022-12-07T12:37:02;2.04;98.37
72320;SHT30;60269;52.502;16.732;2022-12-07T12:58:42;1.96;99.00
72320;SHT30;60269;52.502;16.732;2022-12-07T13:09:59;1.82;99.04
72320;SHT30;60269;52.502;16.732;2022-12-07T13:13:33;1.66;99.08
72320;SHT30;60269;52.502;16.732;2022-12-07T13:17:11;1.56;99.07
72320;SHT30;60269;52.502;16.732;2022-12-07T13:20:56;1.46;98.98
72320;SHT30;60269;52.502;16.732;2022-12-07T13:24:31;1.45;98.63
72320;SHT30;60269;52.502;16.732;2022-12-07T13:28:17;1.52;98.04
72320;SHT30;60269;52.502;16.732;2022-12-07T13:31:55;1.55;97.91
72320;SHT30;60269;52.502;16.732;2022-12-07T13:35:36;1.54;97.83
72320;SHT30;60269;52.502;16.732;2022-12-07T13:39:19;1.54;98.22
72320;SHT30;60269;52.502;16.732;2022-12-07T13:43:00;1.46;98.49
72320;SHT30;60269;52.502;16.732;2022-12-07T13:50:33;1.41;95.79
72320;SHT30;60269;52.502;16.732;2022-12-07T13:54:11;1.34;95.75
72320;SHT30;60269;52.502;16.732;2022-12-07T13:57:44;1.30;95.77
72320;SHT30;60269;52.502;16.732;2022-12-07T14:01:18;1.27;94.68
72320;SHT30;60269;52.502;16.732;2022-12-07T14:04:50;1.15;94.54
72320;SHT30;60269;52.502;16.732;2022-12-07T14:08:23;1.23;94.67
72320;SHT30;60269;52.502;16.732;2022-12-07T14:11:57;1.31;94.90
72320;SHT30;60269;52.502;16.732;2022-12-07T14:15:32;1.41;94.88
72320;SHT30;60269;52.502;16.732;2022-12-07T14:19:06;1.45;94.96
72320;SHT30;60269;52.502;16.732;2022-12-07T14:22:57;1.54;95.50
72320;SHT30;60269;52.502;16.732;2022-12-07T14:26:29;1.54;95.77
72320;SHT30;60269;52.502;16.732;2022-12-07T14:30:04;1.58;96.03
72320;SHT30;60269;52.502;16.732;2022-12-07T14:33:37;1.60;96.30
72320;SHT30;60269;52.502;16.732;2022-12-07T14:37:09;1.56;95.91
72320;SHT30;60269;52.502;16.732;2022-12-07T14:40:42;1.52;95.89
72320;SHT30;60269;52.502;16.732;2022-12-07T14:44:14;1.42;95.66
72320;SHT30;60269;52.502;16.732;2022-12-07T14:47:57;1.14;96.27
72320;SHT30;60269;52.502;16.732;2022-12-07T14:51:49;0.87;97.43
72320;SHT30;60269;52.502;16.732;2022-12-07T14:55:41;0.77;97.62
72320;SHT30;60269;52.502;16.732;2022-12-07T14:59:14;0.66;97.72
72320;SHT30;60269;52.502;16.732;2022-12-07T15:02:47;0.59;97.88
72320;SHT30;60269;52.502;16.732;2022-12-07T15:06:20;0.55;98.32
72320;SHT30;60269;52.502;16.732;2022-12-07T15:09:51;0.35;98.64
72320;SHT30;60269;52.502;16.732;2022-12-07T15:13:23;0.25;99.05
72320;SHT30;60269;52.502;16.732;2022-12-07T15:17:14;0.41;99.15
72320;SHT30;60269;52.502;16.732;2022-12-07T15:20:58;0.48;98.63
72320;SHT30;60269;52.502;16.732;2022-12-07T15:24:30;0.33;98.85
72320;SHT30;60269;52.502;16.732;2022-12-07T15:28:02;0.18;99.34
72320;SHT30;60269;52.502;16.732;2022-12-07T15:31:35;0.17;99.36
72320;SHT30;60269;52.502;16.732;2022-12-07T15:35:26;0.28;99.48
72320;SHT30;60269;52.502;16.732;2022-12-07T15:38:58;0.44;98.91
72320;SHT30;60269;52.502;16.732;2022-12-07T15:42:46;0.41;98.51
72320;SHT30;60269;52.502;16.732;2022-12-07T15:46:18;0.38;98.67
72320;SHT30;60269;52.502;16.732;2022-12-07T15:49:50;0.46;98.30
72320;SHT30;60269;52.502;16.732;2022-12-07T15:53:22;0.48;98.16
72320;SHT30;60269;52.502;16.732;2022-12-07T15:56:56;0.56;97.75
72320;SHT30;60269;52.502;16.732;2022-12-07T16:00:28;0.53;97.51
72320;SHT30;60269;52.502;16.732;2022-12-07T16:04:00;0.52;97.66
72320;SHT30;60269;52.502;16.732;2022-12-07T16:07:32;0.63;97.46
72320;SHT30;60269;52.502;16.732;2022-12-07T16:11:07;0.62;97.35
72320;SHT30;60269;52.502;16.732;2022-12-07T16:14:40;0.67;97.23
72320;SHT30;60269;52.502;16.732;2022-12-07T16:18:12;0.62;97.35
72320;SHT30;60269;52.502;16.732;2022-12-07T16:21:45;0.41;97.89
72320;SHT30;60269;52.502;16.732;2022-12-07T16:25:17;0.29;98.27
72320;SHT30;60269;52.502;16.732;2022-12-07T16:28:50;0.09;98.67
72320;SHT30;60269;52.502;16.732;2022-12-07T16:32:22;0.09;98.78
72320;SHT30;60269;52.502;16.732;2022-12-07T16:35:54;0.02;98.79
72320;SHT30;60269;52.502;16.732;2022-12-07T16:39:27;0.07;98.86
72320;SHT30;60269;52.502;16.732;2022-12-07T16:42:59;0.15;98.53
72320;SHT30;60269;52.502;16.732;2022-12-07T16:46:34;0.11;98.26
72320;SHT30;60269;52.502;16.732;2022-12-07T16:50:07;0.02;98.49
72320;SHT30;60269;52.502;16.732;2022-12-07T16:53:41;0.08;98.29
72320;SHT30;60269;52.502;16.732;2022-12-07T16:57:13;0.14;98.21
72320;SHT30;60269;52.502;16.732;2022-12-07T17:00:53;0.09;98.25
72320;SHT30;60269;52.502;16.732;2022-12-07T17:04:27;0.00;98.35
72320;SHT30;60269;52.502;16.732;2022-12-07T17:08:03;0.07;98.52
72320;SHT30;60269;52.502;16.732;2022-12-07T17:11:35;0.18;98.37
72320;SHT30;60269;52.502;16.732;2022-12-07T17:15:08;0.33;97.88
72320;SHT30;60269;52.502;16.732;2022-12-07T17:18:49;0.46;97.33
72320;SHT30;60269;52.502;16.732;2022-12-07T17:22:21;0.55;96.93
72320;SHT30;60269;52.502;16.732;2022-12-07T17:25:53;0.53;96.92
72320;SHT30;60269;52.502;16.732;2022-12-07T17:29:26;0.45;97.18
72320;SHT30;60269;52.502;16.732;2022-12-07T17:32:57;0.11;97.69
72320;SHT30;60269;52.502;16.732;2022-12-07T17:36:31;-0.09;98.61
72320;SHT30;60269;52.502;16.732;2022-12-07T17:40:04;0.04;98.45
72320;SHT30;60269;52.502;16.732;2022-12-07T17:43:37;0.22;97.70
72320;SHT30;60269;52.502;16.732;2022-12-07T17:47:09;0.19;97.53
72320;SHT30;60269;52.502;16.732;2022-12-07T17:50:41;0.14;97.78
72320;SHT30;60269;52.502;16.732;2022-12-07T17:54:34;0.12;97.99
72320;SHT30;60269;52.502;16.732;2022-12-07T17:58:06;0.09;98.11
72320;SHT30;60269;52.502;16.732;2022-12-07T18:01:38;0.17;97.90
72320;SHT30;60269;52.502;16.732;2022-12-07T18:05:11;0.15;97.80
72320;SHT30;60269;52.502;16.732;2022-12-07T18:08:43;0.09;98.09
72320;SHT30;60269;52.502;16.732;2022-12-07T18:12:15;0.11;98.08
72320;SHT30;60269;52.502;16.732;2022-12-07T18:15:47;0.15;98.01
72320;SHT30;60269;52.502;16.732;2022-12-07T18:19:19;0.17;97.87
72320;SHT30;60269;52.502;16.732;2022-12-07T18:22:51;0.08;97.88
72320;SHT30;60269;52.502;16.732;2022-12-07T18:26:24;0.14;97.67
72320;SHT30;60269;52.502;16.732;2022-12-07T18:29:56;0.11;97.84
72320;SHT30;60269;52.502;16.732;2022-12-07T18:33:32;0.05;97.91
72320;SHT30;60269;52.502;16.732;2022-12-07T18:37:13;0.05;97.79
72320;SHT30;60269;52.502;16.732;2022-12-07T18:40:47;0.05;97.59
72320;SHT30;60269;52.502;16.732;2022-12-07T18:44:25;0.05;97.43
72320;SHT30;60269;52.502;16.732;2022-12-07T18:47:57;0.09;97.46
72320;SHT30;60269;52.502;16.732;2022-12-07T18:51:29;0.01;97.37
72320;SHT30;60269;52.502;16.732;2022-12-07T18:55:03;0.07;96.71
72320;SHT30;60269;52.502;16.732;2022-12-07T18:58:36;-0.05;96.83
72320;SHT30;60269;52.502;16.732;2022-12-07T19:02:09;0.02;96.16
72320;SHT30;60269;52.502;16.732;2022-12-07T19:05:43;-0.02;96.07
72320;SHT30;60269;52.502;16.732;2022-12-07T19:09:15;-0.03;96.24
72320;SHT30;60269;52.502;16.732;2022-12-07T19:12:48;-0.06;96.40
72320;SHT30;60269;52.502;16.732;2022-12-07T19:16:19;-0.16;96.89
72320;SHT30;60269;52.502;16.732;2022-12-07T19:19:52;-0.29;97.23
72320;SHT30;60269;52.502;16.732;2022-12-07T19:23:23;-0.16;96.92
72320;SHT30;60269;52.502;16.732;2022-12-07T19:26:58;-0.26;97.19
72320;SHT30;60269;52.502;16.732;2022-12-07T19:30:30;-0.34;97.16
72320;SHT30;60269;52.502;16.732;2022-12-07T19:34:13;-0.34;96.74
72320;SHT30;60269;52.502;16.732;2022-12-07T19:37:49;-0.38;96.67
72320;SHT30;60269;52.502;16.732;2022-12-07T19:41:21;-0.48;96.70
72320;SHT30;60269;52.502;16.732;2022-12-07T19:45:05;-0.47;96.18
72320;SHT30;60269;52.502;16.732;2022-12-07T19:48:37;-0.44;95.82
72320;SHT30;60269;52.502;16.732;2022-12-07T19:52:11;-0.41;95.52
72320;SHT30;60269;52.502;16.732;2022-12-07T19:55:43;-0.36;94.94
72320;SHT30;60269;52.502;16.732;2022-12-07T19:59:18;-0.45;95.08
72320;SHT30;60269;52.502;16.732;2022-12-07T20:02:50;-0.42;94.67
72320;SHT30;60269;52.502;16.732;2022-12-07T20:06:23;-0.50;94.59
72320;SHT30;60269;52.502;16.732;2022-12-07T20:09:55;-0.54;94.48
72320;SHT30;60269;52.502;16.732;2022-12-07T20:13:28;-0.38;93.74
72320;SHT30;60269;52.502;16.732;2022-12-07T20:17:00;-0.29;93.04
72320;SHT30;60269;52.502;16.732;2022-12-07T20:20:32;-0.29;92.90
72320;SHT30;60269;52.502;16.732;2022-12-07T20:24:06;-0.30;92.95
72320;SHT30;60269;52.502;16.732;2022-12-07T20:27:38;-0.19;92.60
72320;SHT30;60269;52.502;16.732;2022-12-07T20:31:13;-0.23;92.69
72320;SHT30;60269;52.502;16.732;2022-12-07T20:34:45;-0.16;92.34
72320;SHT30;60269;52.502;16.732;2022-12-07T20:38:17;-0.24;92.67
72320;SHT30;60269;52.502;16.732;2022-12-07T20:41:50;-0.20;92.92
72320;SHT30;60269;52.502;16.732;2022-12-07T20:45:48;-0.09;92.59
72320;SHT30;60269;52.502;16.732;2022-12-07T20:49:20;0.02;92.17
72320;SHT30;60269;52.502;16.732;2022-12-07T20:52:53;0.00;92.48
72320;SHT30;60269;52.502;16.732;2022-12-07T20:56:31;0.01;92.54
72320;SHT30;60269;52.502;16.732;2022-12-07T21:00:06;0.00;92.79
72320;SHT30;60269;52.502;16.732;2022-12-07T21:03:39;0.00;92.71
72320;SHT30;60269;52.502;16.732;2022-12-07T21:07:10;0.01;92.60
72320;SHT30;60269;52.502;16.732;2022-12-07T21:10:43;0.02;92.59
72320;SHT30;60269;52.502;16.732;2022-12-07T21:14:14;0.08;92.43
72320;SHT30;60269;52.502;16.732;2022-12-07T21:17:47;0.14;91.82
72320;SHT30;60269;52.502;16.732;2022-12-07T21:21:19;0.15;91.97
72320;SHT30;60269;52.502;16.732;2022-12-07T21:24:51;0.15;91.89
72320;SHT30;60269;52.502;16.732;2022-12-07T21:28:23;0.07;92.48
72320;SHT30;60269;52.502;16.732;2022-12-07T21:31:55;-0.05;92.95
72320;SHT30;60269;52.502;16.732;2022-12-07T21:35:27;-0.05;93.04
72320;SHT30;60269;52.502;16.732;2022-12-07T21:39:00;0.02;92.82
72320;SHT30;60269;52.502;16.732;2022-12-07T21:42:32;0.05;92.81
72320;SHT30;60269;52.502;16.732;2022-12-07T21:46:04;0.09;92.47
72320;SHT30;60269;52.502;16.732;2022-12-07T21:49:36;0.08;92.54
72320;SHT30;60269;52.502;16.732;2022-12-07T21:53:08;0.11;92.50
72320;SHT30;60269;52.502;16.732;2022-12-07T21:56:41;0.05;92.66
72320;SHT30;60269;52.502;16.732;2022-12-07T22:00:14;0.05;92.92
72320;SHT30;60269;52.502;16.732;2022-12-07T22:03:47;0.04;92.90
72320;SHT30;60269;52.502;16.732;2022-12-07T22:07:19;0.04;93.03
72320;SHT30;60269;52.502;16.732;2022-12-07T22:10:51;0.04;93.02
72320;SHT30;60269;52.502;16.732;2022-12-07T22:17:42;-0.02;93.41
72320;SHT30;60269;52.502;16.732;2022-12-07T22:21:14;-0.05;93.44
72320;SHT30;60269;52.502;16.732;2022-12-07T22:24:46;-0.13;93.84
72320;SHT30;60269;52.502;16.732;2022-12-07T22:28:19;-0.10;93.91
72320;SHT30;60269;52.502;16.732;2022-12-07T22:31:50;-0.17;94.07
72320;SHT30;60269;52.502;16.732;2022-12-07T22:35:25;-0.26;94.28
72320;SHT30;60269;52.502;16.732;2022-12-07T22:38:56;-0.40;94.79
72320;SHT30;60269;52.502;16.732;2022-12-07T22:42:28;-0.57;95.52
72320;SHT30;60269;52.502;16.732;2022-12-07T22:46:00;-0.67;95.54
72320;SHT30;60269;52.502;16.732;2022-12-07T22:49:33;-0.65;95.68
72320;SHT30;60269;52.502;16.732;2022-12-07T22:53:05;-0.75;96.38
72320;SHT30;60269;52.502;16.732;2022-12-07T22:56:37;-0.74;96.17
72320;SHT30;60269;52.502;16.732;2022-12-07T23:00:09;-0.74;96.18
72320;SHT30;60269;52.502;16.732;2022-12-07T23:03:42;-0.77;96.15
72320;SHT30;60269;52.502;16.732;2022-12-07T23:07:14;-0.78;96.23
72320;SHT30;60269;52.502;16.732;2022-12-07T23:10:47;-0.79;96.52
72320;SHT30;60269;52.502;16.732;2022-12-07T23:17:56;-0.78;96.37
72320;SHT30;60269;52.502;16.732;2022-12-07T23:21:28;-0.78;96.10
72320;SHT30;60269;52.502;16.732;2022-12-07T23:25:01;-0.81;95.84
72320;SHT30;60269;52.502;16.732;2022-12-07T23:28:35;-0.91;96.11
72320;SHT30;60269;52.502;16.732;2022-12-07T23:32:07;-0.88;96.16
72320;SHT30;60269;52.502;16.732;2022-12-07T23:35:40;-0.81;96.14
72320;SHT30;60269;52.502;16.732;2022-12-07T23:39:12;-0.88;96.11
72320;SHT30;60269;52.502;16.732;2022-12-07T23:42:44;-0.91;96.43
72320;SHT30;60269;52.502;16.732;2022-12-07T23:46:21;-0.92;96.51
72320;SHT30;60269;52.502;16.732;2022-12-07T23:49:53;-0.88;96.59
72320;SHT30;60269;52.502;16.732;2022-12-07T23:53:26;-0.88;96.31
72320;SHT30;60269;52.502;16.732;2022-12-07T23:57:00;-0.95;96.85
